createdAt,value
2022-09-23T00:00:09.965Z,77.89
2022-09-23T00:01:11.696Z,77.96
2022-09-23T00:02:13.459Z,78.22
2022-09-23T00:03:16.080Z,78.28
2022-09-23T00:04:17.623Z,77.98
2022-09-23T00:05:19.151Z,78.12
2022-09-23T00:06:21.988Z,77.87
2022-09-23T00:07:23.582Z,77.91
2022-09-23T00:08:25.636Z,77.98
2022-09-23T00:09:27.259Z,77.87
2022-09-23T00:10:29.162Z,77.81
2022-09-23T00:11:30.689Z,78.05
2022-09-23T00:12:32.371Z,78.07
2022-09-23T00:13:38.593Z,78.23
2022-09-23T00:14:40.153Z,77.89
2022-09-23T00:15:41.701Z,78.06
2022-09-23T00:16:43.298Z,78.38
2022-09-23T00:17:45.153Z,78.17
2022-09-23T00:18:46.701Z,78.16
2022-09-23T00:19:48.389Z,78.05
2022-09-23T00:20:49.920Z,78.13
2022-09-23T00:21:51.505Z,78.50
2022-09-23T00:22:53.430Z,78.42
2022-09-23T00:23:54.935Z,78.53
2022-09-23T00:24:56.770Z,78.55
2022-09-23T00:25:59.145Z,78.69
2022-09-23T00:27:01.328Z,78.83
2022-09-23T00:28:03.290Z,78.83
2022-09-23T00:29:04.980Z,78.78
2022-09-23T00:30:08.225Z,78.74
2022-09-23T00:31:11.552Z,78.66
2022-09-23T00:32:13.146Z,78.73
2022-09-23T00:33:14.745Z,78.83
2022-09-23T00:34:16.791Z,78.91
2022-09-23T00:35:18.366Z,78.72
2022-09-23T00:36:19.900Z,78.63
2022-09-23T00:37:21.421Z,78.48
2022-09-23T00:38:23.072Z,78.45
2022-09-23T00:39:26.107Z,78.71
2022-09-23T00:40:27.779Z,78.52
2022-09-23T00:41:29.327Z,78.51
2022-09-23T00:42:30.861Z,78.74
2022-09-23T00:43:52.254Z,78.68
2022-09-23T00:44:57.909Z,78.75
2022-09-23T00:45:59.474Z,78.72
2022-09-23T00:47:01.120Z,78.57
2022-09-23T00:48:02.756Z,78.72
2022-09-23T00:49:09.294Z,78.48
2022-09-23T00:50:15.775Z,78.51
2022-09-23T00:51:19.344Z,78.59
2022-09-23T00:52:20.985Z,78.45
2022-09-23T00:53:23.574Z,78.51
2022-09-23T00:54:25.154Z,78.47
2022-09-23T00:55:48.882Z,78.51
2022-09-23T00:56:50.456Z,78.43
2022-09-23T00:57:54.578Z,78.52
2022-09-23T00:58:56.112Z,78.72
2022-09-23T00:59:58.031Z,78.88
2022-09-23T01:01:00.583Z,78.83
2022-09-23T01:02:02.247Z,78.99
2022-09-23T01:03:05.966Z,78.97
2022-09-23T01:04:07.682Z,78.94
2022-09-23T01:05:09.551Z,78.79
2022-09-23T01:06:11.183Z,78.76
2022-09-23T01:07:13.746Z,78.74
2022-09-23T01:08:15.268Z,78.80
2022-09-23T01:09:17.268Z,78.86
2022-09-23T01:10:18.980Z,78.83
2022-09-23T01:11:50.220Z,78.88
2022-09-23T01:12:57.906Z,78.91
2022-09-23T01:14:19.070Z,78.93
2022-09-23T01:15:40.604Z,78.85
2022-09-23T01:16:51.448Z,78.89
2022-09-23T01:18:12.214Z,78.97
2022-09-23T01:19:39.680Z,78.98
2022-09-23T01:20:46.463Z,78.86
2022-09-23T01:22:05.115Z,78.88
2022-09-23T01:23:43.760Z,78.87
2022-09-23T01:24:52.311Z,79.09
2022-09-23T01:26:27.577Z,79.31
2022-09-23T01:27:59.892Z,79.34
2022-09-23T01:29:34.946Z,79.54
2022-09-23T01:30:48.317Z,79.64
2022-09-23T01:32:18.293Z,79.74
2022-09-23T01:33:35.626Z,79.75
2022-09-23T01:34:49.551Z,79.49
2022-09-23T01:36:06.321Z,79.82
2022-09-23T01:37:20.910Z,79.76
2022-09-23T01:38:34.643Z,79.74
2022-09-23T01:40:10.338Z,79.75
2022-09-23T01:41:20.807Z,79.77
2022-09-23T01:42:33.630Z,79.91
2022-09-23T01:43:47.814Z,79.92
2022-09-23T01:44:53.749Z,79.80
2022-09-23T01:45:57.763Z,79.62
2022-09-23T01:47:10.792Z,79.66
2022-09-23T01:48:23.665Z,79.75
2022-09-23T01:49:32.430Z,79.74
2022-09-23T01:50:54.025Z,79.80
2022-09-23T01:52:01.600Z,79.95
2022-09-23T01:53:06.075Z,79.90
2022-09-23T01:54:16.058Z,79.94
2022-09-23T01:55:21.020Z,80.08
2022-09-23T01:56:24.568Z,80.05
2022-09-23T01:57:29.567Z,80.07
2022-09-23T01:58:42.806Z,80.08
2022-09-23T01:59:57.538Z,80.13
2022-09-23T02:01:05.078Z,80.08
2022-09-23T02:02:15.366Z,80.31
2022-09-23T02:03:42.734Z,80.30
2022-09-23T02:05:12.153Z,80.27
2022-09-23T02:06:28.854Z,80.25
2022-09-23T02:07:35.913Z,80.12
2022-09-23T02:09:12.015Z,80.14
2022-09-23T02:10:28.533Z,80.52
2022-09-23T02:11:30.222Z,80.62
2022-09-23T02:12:31.763Z,80.74
2022-09-23T02:13:45.182Z,81.16
2022-09-23T02:15:08.666Z,81.21
2022-09-23T02:16:14.753Z,80.93
2022-09-23T02:17:22.994Z,80.80
2022-09-23T02:18:33.963Z,80.98
2022-09-23T02:19:49.060Z,80.97
2022-09-23T02:20:51.202Z,80.88
2022-09-23T02:21:55.525Z,80.75
2022-09-23T02:23:13.402Z,80.68
2022-09-23T02:24:15.636Z,80.66
2022-09-23T02:25:17.480Z,80.61
2022-09-23T02:26:27.396Z,80.64
2022-09-23T02:27:38.091Z,80.83
2022-09-23T02:28:46.505Z,80.85
2022-09-23T02:30:07.298Z,80.96
2022-09-23T02:31:16.436Z,80.93
2022-09-23T02:32:18.590Z,81.03
2022-09-23T02:33:35.348Z,81.00
2022-09-23T02:35:01.886Z,81.08
2022-09-23T02:36:07.980Z,81.06
2022-09-23T02:37:35.242Z,80.91
2022-09-23T02:38:42.640Z,80.92
2022-09-23T02:39:53.013Z,80.79
2022-09-23T02:40:58.747Z,80.84
2022-09-23T02:42:07.785Z,80.71
2022-09-23T02:43:12.664Z,80.53
2022-09-23T02:44:15.643Z,80.59
2022-09-23T02:45:17.204Z,80.58
2022-09-23T02:46:18.846Z,80.44
2022-09-23T02:47:20.745Z,80.79
2022-09-23T02:48:24.425Z,80.85
2022-09-23T02:49:27.664Z,80.83
2022-09-23T02:50:30.978Z,80.68
2022-09-23T02:51:37.908Z,80.78
2022-09-23T02:52:39.454Z,80.72
2022-09-23T02:53:41.105Z,80.70
2022-09-23T02:54:42.644Z,81.00
2022-09-23T02:55:44.254Z,81.28
2022-09-23T02:56:45.807Z,81.15
2022-09-23T02:57:48.290Z,80.94
2022-09-23T02:58:52.579Z,80.81
2022-09-23T02:59:54.192Z,80.85
2022-09-23T03:01:11.025Z,81.00
2022-09-23T03:02:23.753Z,80.97
2022-09-23T03:03:43.640Z,80.98
2022-09-23T03:04:55.031Z,80.75
2022-09-23T03:05:57.743Z,81.17
2022-09-23T03:07:22.331Z,80.88
2022-09-23T03:08:36.787Z,81.14
2022-09-23T03:09:53.135Z,81.12
2022-09-23T03:11:04.386Z,81.43
2022-09-23T03:12:34.379Z,81.33
2022-09-23T03:13:54.079Z,81.30
2022-09-23T03:15:01.330Z,81.29
2022-09-23T03:16:29.484Z,81.55
2022-09-23T03:18:01.919Z,81.51
2022-09-23T03:19:06.430Z,81.64
2022-09-23T03:20:13.431Z,81.36
2022-09-23T03:21:36.012Z,81.45
2022-09-23T03:22:39.963Z,81.72
2022-09-23T03:23:41.663Z,81.90
2022-09-23T03:24:44.942Z,81.87
2022-09-23T03:25:47.422Z,81.94
2022-09-23T03:26:48.949Z,81.80
2022-09-23T03:27:50.482Z,81.69
2022-09-23T03:28:52.071Z,81.71
2022-09-23T03:29:53.794Z,81.56
2022-09-23T03:30:55.378Z,81.64
2022-09-23T03:31:56.917Z,81.67
2022-09-23T03:33:00.243Z,81.65
2022-09-23T03:34:03.512Z,81.78
2022-09-23T03:35:05.543Z,81.95
2022-09-23T03:36:27.380Z,81.91
2022-09-23T03:37:40.135Z,81.98
2022-09-23T03:38:43.598Z,82.07
2022-09-23T03:40:43.542Z,82.10
2022-09-23T03:41:48.494Z,82.10
2022-09-23T03:42:50.191Z,82.11
2022-09-23T03:43:53.385Z,82.04
2022-09-23T03:44:56.440Z,82.28
2022-09-23T03:45:58.246Z,82.19
2022-09-23T03:47:02.301Z,82.10
2022-09-23T03:48:04.433Z,81.94
2022-09-23T03:49:13.263Z,81.91
2022-09-23T03:50:17.343Z,82.19
2022-09-23T03:51:23.863Z,82.15
2022-09-23T03:52:25.834Z,82.08
2022-09-23T03:53:27.422Z,82.09
2022-09-23T03:54:30.042Z,81.97
2022-09-23T03:55:32.371Z,82.19
2022-09-23T03:56:33.937Z,82.07
2022-09-23T03:57:36.225Z,82.09
2022-09-23T03:58:38.257Z,82.13
2022-09-23T03:59:39.994Z,82.15
2022-09-23T04:00:42.419Z,82.38
2022-09-23T04:01:44.309Z,82.27
2022-09-23T04:02:45.997Z,82.13
2022-09-23T04:03:48.415Z,82.15
2022-09-23T04:04:50.130Z,82.46
2022-09-23T04:05:51.909Z,82.37
2022-09-23T04:06:56.933Z,82.33
2022-09-23T04:07:58.494Z,82.37
2022-09-23T04:09:01.652Z,82.27
2022-09-23T04:10:05.043Z,82.42
2022-09-23T04:11:06.870Z,82.36
2022-09-23T04:12:09.505Z,82.53
2022-09-23T04:13:11.427Z,82.58
2022-09-23T04:14:13.555Z,82.46
2022-09-23T04:15:15.170Z,82.36
2022-09-23T04:16:16.794Z,82.57
2022-09-23T04:17:18.421Z,82.50
2022-09-23T04:18:21.393Z,82.41
2022-09-23T04:19:23.009Z,82.33
2022-09-23T04:20:26.093Z,82.53
2022-09-23T04:21:27.823Z,82.31
2022-09-23T04:22:29.383Z,82.59
2022-09-23T04:23:31.028Z,82.73
2022-09-23T04:24:32.654Z,82.71
2022-09-23T04:25:34.480Z,82.86
2022-09-23T04:26:36.287Z,82.99
2022-09-23T04:27:38.154Z,83.09
2022-09-23T04:28:39.816Z,83.15
2022-09-23T04:29:41.529Z,83.18
2022-09-23T04:30:43.871Z,83.21
2022-09-23T04:31:45.561Z,83.58
2022-09-23T04:32:47.204Z,83.49
2022-09-23T04:33:48.759Z,83.51
2022-09-23T04:34:50.311Z,83.50
2022-09-23T04:35:52.132Z,83.52
2022-09-23T04:36:53.767Z,83.77
2022-09-23T04:37:55.358Z,83.71
2022-09-23T04:38:57.141Z,83.78
2022-09-23T04:39:58.773Z,83.77
2022-09-23T04:41:00.506Z,83.70
2022-09-23T04:42:03.887Z,83.48
2022-09-23T04:43:05.481Z,83.46
2022-09-23T04:44:07.128Z,83.49
2022-09-23T04:45:08.990Z,83.26
2022-09-23T04:46:11.589Z,83.15
2022-09-23T04:47:13.386Z,83.15
2022-09-23T04:48:14.965Z,82.97
2022-09-23T04:49:16.612Z,83.11
2022-09-23T04:50:18.254Z,83.09
2022-09-23T04:51:21.138Z,83.36
2022-09-23T04:52:22.758Z,83.55
2022-09-23T04:53:24.352Z,83.92
2022-09-23T04:54:25.918Z,83.74
2022-09-23T04:55:27.500Z,83.80
2022-09-23T04:56:32.170Z,83.53
2022-09-23T04:57:34.629Z,83.77
2022-09-23T04:58:36.646Z,83.62
2022-09-23T04:59:38.227Z,83.68
2022-09-23T05:00:39.813Z,83.59
2022-09-23T05:01:41.727Z,83.43
2022-09-23T05:02:46.725Z,83.53
2022-09-23T05:03:48.271Z,83.45
2022-09-23T05:04:50.433Z,83.47
2022-09-23T05:05:53.031Z,83.38
2022-09-23T05:06:54.733Z,83.78
2022-09-23T05:07:56.423Z,83.70
2022-09-23T05:08:58.408Z,83.54
2022-09-23T05:10:00.039Z,83.58
2022-09-23T05:11:02.309Z,83.52
2022-09-23T05:12:04.142Z,83.45
2022-09-23T05:13:05.692Z,83.55
2022-09-23T05:14:07.329Z,83.53
2022-09-23T05:15:09.042Z,83.29
2022-09-23T05:16:12.115Z,83.13
2022-09-23T05:17:14.768Z,83.34
2022-09-23T05:18:20.683Z,83.17
2022-09-23T05:19:23.093Z,83.19
2022-09-23T05:20:24.742Z,83.26
2022-09-23T05:21:29.140Z,83.26
2022-09-23T05:22:30.861Z,83.63
2022-09-23T05:23:32.446Z,83.58
2022-09-23T05:24:34.134Z,83.39
2022-09-23T05:25:38.325Z,83.38
2022-09-23T05:26:40.215Z,83.37
2022-09-23T05:27:42.385Z,83.19
2022-09-23T05:28:44.157Z,83.18
2022-09-23T05:29:46.442Z,83.05
2022-09-23T05:30:47.998Z,82.96
2022-09-23T05:31:49.701Z,82.89
2022-09-23T05:32:51.316Z,82.83
2022-09-23T05:33:57.616Z,82.92
2022-09-23T05:34:59.549Z,82.81
2022-09-23T05:36:01.572Z,82.92
2022-09-23T05:37:03.310Z,82.61
2022-09-23T05:38:04.895Z,81.80
2022-09-23T05:39:07.637Z,79.93
2022-09-23T05:40:09.767Z,77.90
2022-09-23T05:41:12.777Z,75.65
2022-09-23T05:42:14.709Z,73.80
2022-09-23T05:43:16.289Z,72.98
2022-09-23T05:44:18.183Z,72.30
2022-09-23T05:45:19.747Z,71.86
2022-09-23T05:46:27.973Z,70.58
2022-09-23T05:47:29.653Z,69.79
2022-09-23T05:48:31.702Z,70.34
2022-09-23T05:49:58.005Z,69.70
2022-09-23T05:50:54.952Z,69.42
2022-09-23T05:51:56.743Z,69.47
2022-09-23T05:52:58.338Z,70.16
2022-09-23T05:54:00.470Z,70.51
2022-09-23T05:55:02.729Z,70.47
2022-09-23T05:57:06.252Z,70.83
2022-09-23T05:58:07.830Z,71.11
2022-09-23T05:59:09.462Z,71.25
2022-09-23T06:00:11.467Z,71.50
2022-09-23T06:01:18.201Z,72.32
2022-09-23T06:02:20.016Z,72.28
2022-09-23T06:03:21.671Z,72.59
2022-09-23T06:04:23.368Z,73.01
2022-09-23T06:05:24.982Z,73.58
2022-09-23T06:06:30.713Z,73.30
2022-09-23T06:07:32.690Z,73.61
2022-09-23T06:08:34.671Z,73.58
2022-09-23T06:09:36.892Z,74.00
2022-09-23T06:10:42.875Z,74.52
2022-09-23T06:11:44.503Z,74.95
2022-09-23T06:12:46.080Z,74.38
2022-09-23T06:13:47.692Z,74.87
2022-09-23T06:14:50.723Z,74.99
2022-09-23T06:15:52.716Z,75.00
2022-09-23T06:16:54.343Z,75.41
2022-09-23T06:17:55.913Z,75.23
2022-09-23T06:19:00.649Z,75.45
2022-09-23T06:20:04.897Z,75.59
2022-09-23T06:21:06.595Z,75.52
2022-09-23T06:22:08.304Z,75.06
2022-09-23T06:23:10.871Z,75.38
2022-09-23T06:24:17.087Z,75.65
2022-09-23T06:25:23.139Z,75.96
2022-09-23T06:26:24.696Z,76.18
2022-09-23T06:27:26.361Z,76.22
2022-09-23T06:28:32.426Z,75.82
2022-09-23T06:29:34.063Z,75.99
2022-09-23T06:30:35.655Z,76.13
2022-09-23T06:31:37.615Z,76.03
2022-09-23T06:32:39.299Z,75.97
2022-09-23T06:33:42.487Z,75.77
2022-09-23T06:34:51.422Z,75.71
2022-09-23T06:35:59.900Z,75.96
2022-09-23T06:37:13.552Z,75.74
2022-09-23T06:38:16.399Z,74.68
2022-09-23T06:39:17.957Z,74.75
2022-09-23T06:40:19.851Z,74.63
2022-09-23T06:41:21.542Z,74.36
2022-09-23T06:42:23.088Z,74.49
2022-09-23T06:43:25.483Z,74.37
2022-09-23T06:44:28.527Z,73.98
2022-09-23T06:45:30.125Z,74.22
2022-09-23T06:46:31.874Z,74.47
2022-09-23T06:47:33.566Z,74.29
2022-09-23T06:48:37.792Z,74.75
2022-09-23T06:49:39.412Z,73.88
2022-09-23T06:50:40.950Z,73.62
2022-09-23T06:51:42.737Z,74.04
2022-09-23T06:52:51.037Z,73.90
2022-09-23T06:53:53.021Z,74.11
2022-09-23T06:54:54.587Z,73.90
2022-09-23T06:56:03.813Z,73.91
2022-09-23T06:57:05.503Z,73.88
2022-09-23T06:58:08.186Z,73.62
2022-09-23T06:59:10.551Z,73.42
2022-09-23T07:00:13.322Z,73.43
2022-09-23T07:01:16.437Z,73.30
2022-09-23T07:02:18.211Z,73.21
2022-09-23T07:03:20.593Z,72.66
2022-09-23T07:04:24.113Z,72.74
2022-09-23T07:05:28.904Z,72.91
2022-09-23T07:06:30.526Z,72.34
2022-09-23T07:07:32.136Z,72.15
2022-09-23T07:08:33.962Z,71.85
2022-09-23T07:09:35.647Z,71.83
2022-09-23T07:10:37.242Z,71.57
2022-09-23T07:11:39.474Z,71.31
2022-09-23T07:12:41.338Z,71.31
2022-09-23T07:13:42.969Z,71.56
2022-09-23T07:14:44.841Z,71.24
2022-09-23T07:15:51.956Z,71.00
2022-09-23T07:16:53.922Z,70.53
2022-09-23T07:17:56.456Z,70.55
2022-09-23T07:18:58.127Z,70.34
2022-09-23T07:19:59.709Z,70.43
2022-09-23T07:21:15.116Z,69.98
2022-09-23T07:22:17.921Z,70.69
2022-09-23T07:23:19.829Z,70.21
2022-09-23T07:24:22.357Z,70.06
2022-09-23T07:25:23.980Z,70.13
2022-09-23T07:26:25.792Z,70.01
2022-09-23T07:27:27.529Z,69.66
2022-09-23T07:28:29.260Z,70.06
2022-09-23T07:29:43.504Z,70.38
2022-09-23T07:30:57.564Z,70.26
2022-09-23T07:32:12.363Z,69.87
2022-09-23T07:33:28.641Z,70.10
2022-09-23T07:34:32.921Z,70.12
2022-09-23T07:35:34.664Z,68.53
2022-09-23T07:36:37.503Z,69.08
2022-09-23T07:37:39.802Z,68.93
2022-09-23T07:38:45.200Z,68.19
2022-09-23T07:39:47.385Z,68.25
2022-09-23T07:40:49.242Z,69.28
2022-09-23T07:41:51.892Z,68.50
2022-09-23T07:42:53.894Z,68.94
2022-09-23T07:43:58.705Z,67.82
2022-09-23T07:45:00.341Z,67.85
2022-09-23T07:46:03.283Z,67.77
2022-09-23T07:47:05.181Z,67.65
2022-09-23T07:48:06.790Z,67.87
2022-09-23T07:49:08.456Z,67.75
2022-09-23T07:50:13.161Z,66.43
2022-09-23T07:51:22.632Z,66.64
2022-09-23T07:52:24.255Z,67.75
2022-09-23T07:53:26.386Z,67.58
2022-09-23T07:54:29.854Z,66.40
2022-09-23T07:55:31.481Z,66.76
2022-09-23T07:56:33.455Z,66.51
2022-09-23T07:57:35.124Z,66.56
2022-09-23T07:58:36.745Z,65.77
2022-09-23T07:59:38.335Z,65.82
2022-09-23T08:00:39.992Z,65.74
2022-09-23T08:01:43.903Z,66.76
2022-09-23T08:02:48.443Z,66.50
2022-09-23T08:03:53.851Z,66.34
2022-09-23T08:04:55.626Z,66.13
2022-09-23T08:06:10.122Z,66.26
2022-09-23T08:07:12.204Z,66.12
2022-09-23T08:08:14.244Z,66.53
2022-09-23T08:09:16.456Z,66.56
2022-09-23T08:10:21.163Z,66.26
2022-09-23T08:11:24.146Z,66.43
2022-09-23T08:12:25.711Z,65.90
2022-09-23T08:13:27.287Z,66.08
2022-09-23T08:14:28.911Z,66.18
2022-09-23T08:15:31.242Z,65.96
2022-09-23T08:16:33.000Z,64.95
2022-09-23T08:17:34.583Z,66.31
2022-09-23T08:18:36.307Z,64.41
2022-09-23T08:19:37.882Z,64.53
2022-09-23T08:20:47.265Z,65.04
2022-09-23T08:21:52.852Z,64.65
2022-09-23T08:22:54.742Z,65.00
2022-09-23T08:23:56.315Z,64.77
2022-09-23T08:24:58.484Z,65.27
2022-09-23T08:26:01.807Z,65.11
2022-09-23T08:27:03.733Z,65.10
2022-09-23T08:28:05.310Z,64.66
2022-09-23T08:29:09.849Z,64.62
2022-09-23T08:30:11.864Z,64.03
2022-09-23T08:31:14.239Z,64.16
2022-09-23T08:32:16.184Z,63.63
2022-09-23T08:33:23.083Z,63.68
2022-09-23T08:34:27.465Z,63.45
2022-09-23T08:35:29.361Z,63.16
2022-09-23T08:36:31.018Z,62.96
2022-09-23T08:37:32.643Z,63.10
2022-09-23T08:38:34.253Z,63.05
2022-09-23T08:39:35.892Z,63.24
2022-09-23T08:40:39.237Z,62.66
2022-09-23T08:41:59.337Z,63.15
2022-09-23T08:43:00.966Z,62.46
2022-09-23T08:44:04.669Z,62.29
2022-09-23T08:45:06.858Z,62.20
2022-09-23T08:46:11.016Z,62.73
2022-09-23T08:47:12.555Z,62.26
2022-09-23T08:48:15.834Z,62.03
2022-09-23T08:49:26.498Z,62.43
2022-09-23T08:50:42.543Z,62.58
2022-09-23T08:51:47.368Z,62.42
2022-09-23T08:52:55.023Z,62.58
2022-09-23T08:53:56.644Z,63.33
2022-09-23T08:54:58.222Z,62.65
2022-09-23T08:56:00.204Z,60.95
2022-09-23T08:57:02.085Z,61.66
2022-09-23T08:58:27.036Z,62.56
2022-09-23T08:59:43.068Z,61.73
2022-09-23T09:00:47.864Z,61.68
2022-09-23T09:01:53.146Z,62.28
2022-09-23T09:02:54.754Z,62.15
2022-09-23T09:03:57.039Z,61.84
2022-09-23T09:05:01.203Z,61.27
2022-09-23T09:06:02.778Z,61.75
2022-09-23T09:07:31.928Z,61.02
2022-09-23T09:08:33.831Z,61.25
2022-09-23T09:09:48.948Z,61.12
2022-09-23T09:10:50.674Z,60.82
2022-09-23T09:11:55.020Z,61.81
2022-09-23T09:13:09.583Z,62.55
2022-09-23T09:14:17.044Z,62.18
2022-09-23T09:15:18.539Z,61.71
2022-09-23T09:16:42.184Z,61.30
2022-09-23T09:17:59.384Z,60.14
2022-09-23T09:19:01.392Z,59.40
2022-09-23T09:20:16.867Z,59.12
2022-09-23T09:21:18.435Z,59.13
2022-09-23T09:23:58.387Z,59.92
2022-09-23T09:25:22.593Z,59.32
2022-09-23T09:26:28.264Z,60.07
2022-09-23T09:27:29.885Z,60.67
2022-09-23T09:28:39.223Z,61.21
2022-09-23T09:29:50.070Z,60.97
2022-09-23T09:30:54.504Z,61.59
2022-09-23T09:31:57.602Z,61.47
2022-09-23T09:33:07.551Z,60.63
2022-09-23T09:34:36.789Z,60.07
2022-09-23T09:35:53.578Z,61.00
2022-09-23T09:37:07.159Z,61.09
2022-09-23T09:38:09.141Z,59.78
2022-09-23T09:39:14.231Z,59.83
2022-09-23T09:40:20.300Z,59.99
2022-09-23T09:41:24.727Z,60.66
2022-09-23T09:42:40.446Z,59.37
2022-09-23T09:43:44.163Z,59.13
2022-09-23T09:44:58.558Z,59.84
2022-09-23T09:46:26.983Z,59.40
2022-09-23T09:47:48.952Z,59.28
2022-09-23T09:48:54.510Z,59.74
2022-09-23T09:50:08.836Z,59.81
2022-09-23T09:51:21.609Z,58.60
2022-09-23T09:52:26.094Z,58.16
2022-09-23T09:53:32.138Z,58.92
2022-09-23T09:54:33.774Z,58.87
2022-09-23T09:55:36.130Z,57.55
2022-09-23T09:56:37.766Z,57.53
2022-09-23T09:57:44.305Z,58.36
2022-09-23T09:58:49.187Z,58.24
2022-09-23T09:59:50.737Z,57.67
2022-09-23T10:00:52.999Z,57.88
2022-09-23T10:02:22.167Z,57.96
2022-09-23T10:03:32.453Z,57.62
2022-09-23T10:04:35.086Z,56.78
2022-09-23T10:05:45.697Z,57.69
2022-09-23T10:07:12.353Z,56.46
2022-09-23T10:08:35.083Z,57.10
2022-09-23T10:09:37.380Z,57.43
2022-09-23T10:10:40.316Z,56.55
2022-09-23T10:11:42.020Z,55.92
2022-09-23T10:12:46.743Z,55.11
2022-09-23T10:14:01.040Z,55.98
2022-09-23T10:15:02.637Z,55.93
2022-09-23T10:16:04.395Z,55.36
2022-09-23T10:17:06.881Z,54.96
2022-09-23T10:18:29.139Z,54.60
2022-09-23T10:19:30.922Z,54.32
2022-09-23T10:20:38.079Z,54.97
2022-09-23T10:21:40.846Z,55.56
2022-09-23T10:22:42.912Z,55.10
2022-09-23T10:23:55.688Z,55.23
2022-09-23T10:24:58.776Z,55.76
2022-09-23T10:26:01.980Z,54.83
2022-09-23T10:27:07.857Z,55.40
2022-09-23T10:28:31.730Z,56.18
2022-09-23T10:29:50.011Z,55.63
2022-09-23T10:31:08.099Z,53.52
2022-09-23T10:32:28.592Z,55.16
2022-09-23T10:33:31.233Z,55.53
2022-09-23T10:34:33.136Z,55.64
2022-09-23T10:35:35.139Z,54.84
2022-09-23T10:36:39.155Z,54.31
2022-09-23T10:37:58.950Z,55.01
2022-09-23T10:39:23.029Z,54.81
2022-09-23T10:40:48.734Z,55.03
2022-09-23T10:42:22.387Z,55.52
2022-09-23T10:44:00.949Z,55.36
2022-09-23T10:45:41.058Z,55.59
2022-09-23T10:47:04.703Z,55.42
2022-09-23T10:48:36.115Z,55.58
2022-09-23T10:50:08.119Z,54.55
2022-09-23T10:51:15.824Z,55.09
2022-09-23T10:52:46.491Z,54.23
2022-09-23T10:54:25.141Z,54.25
2022-09-23T10:55:45.622Z,55.37
2022-09-23T10:56:50.754Z,55.44
2022-09-23T10:57:58.542Z,54.27
2022-09-23T10:59:03.113Z,54.82
2022-09-23T11:00:09.077Z,55.72
2022-09-23T11:01:22.268Z,56.84
2022-09-23T11:02:35.144Z,56.46
2022-09-23T11:03:42.181Z,55.93
2022-09-23T11:05:12.082Z,55.18
2022-09-23T11:06:42.633Z,55.02
2022-09-23T11:08:23.034Z,55.04
2022-09-23T11:09:40.610Z,54.66
2022-09-23T11:11:04.041Z,55.63
2022-09-23T11:12:18.561Z,53.79
2022-09-23T11:13:40.758Z,54.38
2022-09-23T11:15:00.671Z,54.05
2022-09-23T11:16:20.840Z,53.59
2022-09-23T11:17:22.390Z,54.95
2022-09-23T11:18:49.279Z,54.99
2022-09-23T11:20:09.817Z,55.38
2022-09-23T11:21:24.230Z,55.45
2022-09-23T11:22:32.407Z,55.75
2022-09-23T11:24:00.278Z,53.77
2022-09-23T11:25:43.573Z,54.84
2022-09-23T11:27:05.081Z,53.64
2022-09-23T11:28:17.910Z,53.80
2022-09-23T11:29:22.321Z,54.44
2022-09-23T11:30:38.592Z,53.75
2022-09-23T11:32:17.552Z,53.73
2022-09-23T11:33:28.378Z,53.51
2022-09-23T11:34:52.543Z,53.91
2022-09-23T11:35:59.115Z,55.25
2022-09-23T11:37:15.407Z,55.07
2022-09-23T11:38:26.307Z,55.03
2022-09-23T11:39:40.248Z,53.38
2022-09-23T11:40:44.120Z,54.60
2022-09-23T11:41:47.961Z,54.03
2022-09-23T11:43:01.520Z,55.09
2022-09-23T11:44:14.888Z,55.82
2022-09-23T11:45:19.074Z,55.15
2022-09-23T11:46:37.840Z,54.70
2022-09-23T11:47:57.631Z,55.68
2022-09-23T11:49:08.181Z,55.31
2022-09-23T11:50:17.833Z,54.69
2022-09-23T11:51:35.033Z,54.42
2022-09-23T11:52:41.506Z,55.33
2022-09-23T11:53:48.551Z,55.11
2022-09-23T11:55:21.588Z,55.88
2022-09-23T11:56:35.319Z,56.76
2022-09-23T11:57:48.996Z,56.79
2022-09-23T11:59:36.039Z,56.13
2022-09-23T12:00:49.683Z,56.91
2022-09-23T12:02:11.219Z,57.26
2022-09-23T12:03:38.142Z,57.19
2022-09-23T12:04:54.559Z,56.51
2022-09-23T12:06:04.308Z,56.75
2022-09-23T12:07:08.453Z,56.63
2022-09-23T12:08:15.842Z,57.08
2022-09-23T12:10:05.552Z,55.77
2022-09-23T12:11:27.271Z,55.17
2022-09-23T12:13:05.035Z,53.91
2022-09-23T12:14:26.749Z,54.60
2022-09-23T12:15:37.426Z,54.67
2022-09-23T12:16:58.211Z,54.26
2022-09-23T12:18:11.133Z,54.86
2022-09-23T12:19:32.491Z,55.09
2022-09-23T12:20:52.786Z,55.28
2022-09-23T12:22:13.246Z,54.19
2022-09-23T12:23:29.826Z,52.72
2022-09-23T12:24:33.982Z,52.15
2022-09-23T12:25:47.077Z,52.30
2022-09-23T12:26:50.672Z,51.56
2022-09-23T12:27:53.162Z,51.10
2022-09-23T12:28:55.219Z,50.27
2022-09-23T12:30:02.171Z,51.14
2022-09-23T12:31:04.710Z,50.89
2022-09-23T12:32:10.194Z,49.50
2022-09-23T12:33:24.611Z,49.21
2022-09-23T12:34:34.502Z,49.16
2022-09-23T12:35:40.196Z,49.30
2022-09-23T12:36:42.818Z,50.09
2022-09-23T12:37:44.454Z,49.87
2022-09-23T12:39:04.388Z,49.78
2022-09-23T12:40:31.233Z,48.83
2022-09-23T12:41:37.627Z,48.86
2022-09-23T12:42:44.210Z,49.39
2022-09-23T12:43:55.407Z,49.32
2022-09-23T12:45:35.186Z,48.98
2022-09-23T12:46:36.836Z,49.16
2022-09-23T12:47:38.654Z,49.12
2022-09-23T12:48:44.329Z,48.41
2022-09-23T12:49:46.154Z,48.63
2022-09-23T12:50:51.372Z,49.42
2022-09-23T12:52:10.927Z,48.84
2022-09-23T12:53:34.372Z,48.91
2022-09-23T12:54:36.019Z,49.40
2022-09-23T12:55:41.595Z,49.68
2022-09-23T12:56:57.661Z,48.07
2022-09-23T12:57:59.253Z,47.95
2022-09-23T12:59:20.315Z,48.59
2022-09-23T13:00:26.921Z,48.15
2022-09-23T13:01:36.320Z,48.91
2022-09-23T13:02:46.914Z,48.70
2022-09-23T13:04:14.108Z,45.07
2022-09-23T13:05:41.371Z,44.76
2022-09-23T13:06:46.765Z,43.29
2022-09-23T13:07:49.066Z,43.88
2022-09-23T13:08:50.673Z,43.47
2022-09-23T13:09:56.953Z,43.21
2022-09-23T13:11:00.793Z,42.93
2022-09-23T13:12:02.925Z,40.68
2022-09-23T13:13:04.923Z,41.16
2022-09-23T13:14:07.281Z,41.28
2022-09-23T13:15:17.330Z,42.17
2022-09-23T13:16:42.004Z,41.54
2022-09-23T13:17:43.667Z,39.59
2022-09-23T13:18:57.853Z,40.05
2022-09-23T13:20:01.352Z,40.40
2022-09-23T13:21:03.004Z,39.54
2022-09-23T13:22:11.221Z,40.27
2022-09-23T13:23:25.112Z,40.73
2022-09-23T13:24:28.960Z,41.28
2022-09-23T13:25:34.718Z,40.43
2022-09-23T13:26:36.649Z,40.97
2022-09-23T13:27:38.239Z,41.21
2022-09-23T13:28:43.716Z,41.68
2022-09-23T13:29:56.340Z,42.35
2022-09-23T13:30:58.582Z,41.95
2022-09-23T13:32:02.185Z,41.09
2022-09-23T13:33:10.743Z,41.61
2022-09-23T13:34:13.212Z,43.19
2022-09-23T13:35:16.825Z,41.16
2022-09-23T13:36:19.350Z,40.98
2022-09-23T13:37:46.301Z,41.05
2022-09-23T13:38:48.389Z,41.83
2022-09-23T13:39:50.375Z,42.36
2022-09-23T13:40:55.175Z,42.18
2022-09-23T13:42:00.920Z,42.70
2022-09-23T13:43:04.960Z,42.25
2022-09-23T13:44:06.688Z,41.65
2022-09-23T13:45:19.200Z,40.95
2022-09-23T13:46:22.624Z,40.65
2022-09-23T13:47:25.862Z,40.59
2022-09-23T13:48:28.520Z,40.83
2022-09-23T13:49:32.701Z,42.22
2022-09-23T13:50:35.321Z,41.31
2022-09-23T13:51:36.996Z,41.75
2022-09-23T13:52:38.588Z,41.95
2022-09-23T13:53:40.258Z,41.06
2022-09-23T13:54:49.415Z,41.09
2022-09-23T13:56:20.603Z,41.32
2022-09-23T13:57:33.832Z,41.71
2022-09-23T13:58:35.774Z,42.52
2022-09-23T13:59:38.168Z,41.78
2022-09-23T14:00:39.935Z,40.44
2022-09-23T14:01:41.522Z,41.40
2022-09-23T14:02:43.522Z,41.97
2022-09-23T14:03:45.269Z,41.07
2022-09-23T14:04:47.415Z,42.11
2022-09-23T14:05:49.011Z,40.90
2022-09-23T14:06:50.573Z,41.91
2022-09-23T14:07:52.323Z,42.27
2022-09-23T14:08:54.915Z,43.42
2022-09-23T14:09:56.557Z,43.16
2022-09-23T14:10:58.632Z,43.78
2022-09-23T14:12:00.365Z,43.75
2022-09-23T14:13:01.965Z,43.18
2022-09-23T14:14:07.239Z,41.81
2022-09-23T14:15:15.447Z,41.92
2022-09-23T14:16:17.137Z,42.54
2022-09-23T14:17:20.837Z,42.15
2022-09-23T14:18:44.589Z,43.48
2022-09-23T14:19:46.399Z,43.94
2022-09-23T14:20:49.073Z,43.42
2022-09-23T14:21:53.079Z,43.10
2022-09-23T14:23:10.118Z,43.90
2022-09-23T14:24:17.640Z,43.32
2022-09-23T14:25:19.282Z,42.87
2022-09-23T14:26:21.581Z,42.91
2022-09-23T14:27:30.943Z,43.19
2022-09-23T14:28:32.523Z,42.80
2022-09-23T14:29:38.384Z,42.99
2022-09-23T14:30:40.067Z,43.56